This demonstration page uses our WeatherBlox Daily Observations layout. Learn more.

41.55636, -103.73856

Hourly Observations for October 21, 2016

Temp ( °F °C ) Dew Point ( °F °C ) Humidity (%) Winds ( mph kmh ) Pressure ( in mb ) Visibility ( mi km ) Precip ( " mm )
12:53 am 00:53 Clear 46 7.8 23 -5 40 40 SSW 8 13 30.09 1019 10 16.0934 0 0
1:53 am 01:53 Clear 44 6.7 22 -5.6 41 41 Calm 30.07 1018 10 16.0934 0 0
2:53 am 02:53 Clear 35 1.7 25 -3.9 67 67 N 6 9 30.07 1018 10 16.0934 0 0
3:53 am 03:53 Clear 35 1.7 26 -3.3 70 70 NE 3 6 30.06 1018 10 16.0934 0 0
4:53 am 04:53 Clear 36 2.2 25 -3.9 64 64 ENE 5 7 30.06 1018 10 16.0934 0 0
5:53 am 05:53 Clear 33 0.6 25 -3.9 72 72 NNE 6 9 30.09 1019 10 16.0934 0 0
6:53 am 06:53 Clear 34 1.1 25 -3.9 70 70 Calm 30.1 1019 10 16.0934 0 0
7:53 am 07:53 Sunny 34 1.1 27 -2.8 76 76 NNE 5 7 30.12 1020 10 16.0934 0 0
8:53 am 08:53 Sunny 44 6.7 29 -1.7 55 55 Calm 30.12 1020 10 16.0934 0 0
9:53 am 09:53 Sunny 52 11.1 29 -1.7 41 41 W 6 9 30.12 1020 10 16.0934 0 0
10:53 am 10:53 Sunny 61 16.1 24 -4.4 24 24 WNW 9 15 30.09 1019 10 16.0934 0 0
11:53 am 11:53 Sunny 67 19.4 21 -6.1 17 17 W 10 17 30.05 1018 10 16.0934 0 0
12:53 pm 12:53 Sunny 70 21.1 24 -4.4 18 18 WNW 13 20 30.02 1017 10 16.0934 0 0
1:53 pm 13:53 Sunny 71 21.7 24 -4.4 17 17 W 8 13 30 1016 10 16.0934 0 0
2:53 pm 14:53 Sunny 73 22.8 25 -3.9 17 17 WNW 9 15 30.01 1016 10 16.0934 0 0
3:53 pm 15:53 Sunny 73 22.8 25 -3.9 17 17 NW 5 7 30 1016 10 16.0934 0 0
4:53 pm 16:53 Sunny 72 22.2 24 -4.4 17 17 Calm 30 1016 10 16.0934 0 0
5:53 pm 17:53 Sunny 65 18.3 28 -2.2 25 25 ESE 6 9 30.01 1016 10 16.0934 0 0
6:53 pm 18:53 Clear 54 12.2 30 -1.1 40 40 ESE 6 9 30.05 1018 10 16.0934 0 0
7:53 pm 19:53 Clear 49 9.4 30 -1.1 48 48 E 8 13 30.06 1018 10 16.0934 0 0
8:53 pm 20:53 Clear 47 8.3 30 -1.1 52 52 E 8 13 30.05 1018 10 16.0934 0 0
9:53 pm 21:53 Clear 43 6.1 30 -1.1 60 60 ESE 7 11 30.04 1017 10 16.0934 0 0
10:53 pm 22:53 Clear 43 6.1 30 -1.1 60 60 E 5 7 30.01 1016 10 16.0934 0 0
11:53 pm 23:53 Clear 40 4.4 30 -1.1 68 68 E 12 19 30 1016 10 16.0934 0 0

Powered by AerisWeather